sensor_id;sensor_type;location;lat;lon;timestamp;P1;durP1;ratioP1;P2;durP2;ratioP2
44995;SDS011;30729;49.486;10.792;2023-08-07T00:01:11;0.50;;;0.47;;
44995;SDS011;30729;49.486;10.792;2023-08-07T00:03:36;0.67;;;0.50;;
44995;SDS011;30729;49.486;10.792;2023-08-07T00:06:02;0.85;;;0.50;;
44995;SDS011;30729;49.486;10.792;2023-08-07T00:08:27;0.57;;;0.40;;
44995;SDS011;30729;49.486;10.792;2023-08-07T00:10:52;0.43;;;0.30;;
44995;SDS011;30729;49.486;10.792;2023-08-07T00:13:17;0.95;;;0.40;;
44995;SDS011;30729;49.486;10.792;2023-08-07T00:15:43;0.80;;;0.40;;
44995;SDS011;30729;49.486;10.792;2023-08-07T00:18:08;0.30;;;0.30;;
44995;SDS011;30729;49.486;10.792;2023-08-07T00:20:33;0.63;;;0.30;;
44995;SDS011;30729;49.486;10.792;2023-08-07T00:22:58;0.40;;;0.20;;
44995;SDS011;30729;49.486;10.792;2023-08-07T00:25:23;1.50;;;0.45;;
44995;SDS011;30729;49.486;10.792;2023-08-07T00:27:49;2.83;;;0.50;;
44995;SDS011;30729;49.486;10.792;2023-08-07T00:30:14;2.03;;;0.32;;
44995;SDS011;30729;49.486;10.792;2023-08-07T00:32:39;0.57;;;0.20;;
44995;SDS011;30729;49.486;10.792;2023-08-07T00:35:05;0.35;;;0.35;;
44995;SDS011;30729;49.486;10.792;2023-08-07T00:37:30;1.63;;;0.47;;
44995;SDS011;30729;49.486;10.792;2023-08-07T00:39:55;0.30;;;0.30;;
44995;SDS011;30729;49.486;10.792;2023-08-07T00:42:21;0.77;;;0.60;;
44995;SDS011;30729;49.486;10.792;2023-08-07T00:44:46;0.30;;;0.30;;
44995;SDS011;30729;49.486;10.792;2023-08-07T00:47:11;1.88;;;0.47;;
44995;SDS011;30729;49.486;10.792;2023-08-07T00:49:36;0.50;;;0.40;;
44995;SDS011;30729;49.486;10.792;2023-08-07T00:52:01;0.75;;;0.30;;
44995;SDS011;30729;49.486;10.792;2023-08-07T00:54:27;1.17;;;0.70;;
44995;SDS011;30729;49.486;10.792;2023-08-07T00:56:52;1.52;;;0.45;;
44995;SDS011;30729;49.486;10.792;2023-08-07T00:59:18;1.02;;;0.40;;
44995;SDS011;30729;49.486;10.792;2023-08-07T01:01:43;0.70;;;0.40;;
44995;SDS011;30729;49.486;10.792;2023-08-07T01:04:08;0.82;;;0.52;;
44995;SDS011;30729;49.486;10.792;2023-08-07T01:06:34;0.70;;;0.40;;
44995;SDS011;30729;49.486;10.792;2023-08-07T01:08:59;0.57;;;0.40;;
44995;SDS011;30729;49.486;10.792;2023-08-07T01:11:39;0.57;;;0.43;;
44995;SDS011;30729;49.486;10.792;2023-08-07T01:16:42;1.10;;;0.43;;
44995;SDS011;30729;49.486;10.792;2023-08-07T01:19:12;0.50;;;0.50;;
44995;SDS011;30729;49.486;10.792;2023-08-07T01:21:44;3.00;;;0.60;;
44995;SDS011;30729;49.486;10.792;2023-08-07T01:24:10;0.30;;;0.30;;
44995;SDS011;30729;49.486;10.792;2023-08-07T01:26:35;0.60;;;0.45;;
44995;SDS011;30729;49.486;10.792;2023-08-07T01:29:06;2.20;;;0.55;;
44995;SDS011;30729;49.486;10.792;2023-08-07T01:31:34;1.38;;;0.57;;
44995;SDS011;30729;49.486;10.792;2023-08-07T01:34:02;0.75;;;0.50;;
44995;SDS011;30729;49.486;10.792;2023-08-07T01:36:28;2.78;;;0.75;;
44995;SDS011;30729;49.486;10.792;2023-08-07T01:38:55;1.08;;;0.63;;
44995;SDS011;30729;49.486;10.792;2023-08-07T01:41:21;1.00;;;0.65;;
44995;SDS011;30729;49.486;10.792;2023-08-07T01:43:47;1.85;;;0.77;;
44995;SDS011;30729;49.486;10.792;2023-08-07T01:46:12;2.43;;;0.60;;
44995;SDS011;30729;49.486;10.792;2023-08-07T01:48:37;2.50;;;0.57;;
44995;SDS011;30729;49.486;10.792;2023-08-07T01:51:02;2.30;;;0.75;;
44995;SDS011;30729;49.486;10.792;2023-08-07T01:53:27;1.55;;;0.70;;
44995;SDS011;30729;49.486;10.792;2023-08-07T01:55:53;2.72;;;0.90;;
44995;SDS011;30729;49.486;10.792;2023-08-07T01:58:18;2.95;;;0.77;;
44995;SDS011;30729;49.486;10.792;2023-08-07T02:00:43;3.95;;;0.82;;
44995;SDS011;30729;49.486;10.792;2023-08-07T02:03:08;2.58;;;0.63;;
44995;SDS011;30729;49.486;10.792;2023-08-07T02:05:33;1.48;;;0.80;;
44995;SDS011;30729;49.486;10.792;2023-08-07T02:07:59;1.88;;;0.73;;
44995;SDS011;30729;49.486;10.792;2023-08-07T02:10:24;3.17;;;0.90;;
44995;SDS011;30729;49.486;10.792;2023-08-07T02:12:50;3.95;;;0.73;;
44995;SDS011;30729;49.486;10.792;2023-08-07T02:15:15;0.93;;;0.73;;
44995;SDS011;30729;49.486;10.792;2023-08-07T02:17:40;3.10;;;0.80;;
44995;SDS011;30729;49.486;10.792;2023-08-07T02:20:06;3.55;;;0.80;;
44995;SDS011;30729;49.486;10.792;2023-08-07T02:22:31;1.73;;;0.80;;
44995;SDS011;30729;49.486;10.792;2023-08-07T02:24:56;2.40;;;0.80;;
44995;SDS011;30729;49.486;10.792;2023-08-07T02:27:21;3.08;;;0.80;;
44995;SDS011;30729;49.486;10.792;2023-08-07T02:29:47;3.60;;;0.98;;
44995;SDS011;30729;49.486;10.792;2023-08-07T02:32:12;2.08;;;0.90;;
44995;SDS011;30729;49.486;10.792;2023-08-07T02:34:37;2.60;;;0.95;;
44995;SDS011;30729;49.486;10.792;2023-08-07T02:37:02;4.32;;;0.80;;
44995;SDS011;30729;49.486;10.792;2023-08-07T02:39:27;4.40;;;1.15;;
44995;SDS011;30729;49.486;10.792;2023-08-07T02:41:53;1.63;;;0.90;;
44995;SDS011;30729;49.486;10.792;2023-08-07T02:44:18;3.10;;;1.30;;
44995;SDS011;30729;49.486;10.792;2023-08-07T02:46:44;2.60;;;1.00;;
44995;SDS011;30729;49.486;10.792;2023-08-07T02:49:10;3.33;;;0.93;;
44995;SDS011;30729;49.486;10.792;2023-08-07T02:51:35;2.65;;;1.02;;
44995;SDS011;30729;49.486;10.792;2023-08-07T02:54:00;1.58;;;1.00;;
44995;SDS011;30729;49.486;10.792;2023-08-07T02:56:25;1.65;;;1.00;;
44995;SDS011;30729;49.486;10.792;2023-08-07T02:58:50;2.13;;;1.00;;
44995;SDS011;30729;49.486;10.792;2023-08-07T03:01:16;3.85;;;1.00;;
44995;SDS011;30729;49.486;10.792;2023-08-07T03:03:41;4.35;;;1.20;;
44995;SDS011;30729;49.486;10.792;2023-08-07T03:06:06;1.88;;;1.00;;
44995;SDS011;30729;49.486;10.792;2023-08-07T03:08:31;2.93;;;1.03;;
44995;SDS011;30729;49.486;10.792;2023-08-07T03:10:57;2.33;;;1.10;;
44995;SDS011;30729;49.486;10.792;2023-08-07T03:13:23;2.83;;;1.27;;
44995;SDS011;30729;49.486;10.792;2023-08-07T03:15:48;2.50;;;1.10;;
44995;SDS011;30729;49.486;10.792;2023-08-07T03:18:16;4.55;;;1.40;;
44995;SDS011;30729;49.486;10.792;2023-08-07T03:20:41;3.75;;;1.20;;
44995;SDS011;30729;49.486;10.792;2023-08-07T03:23:08;4.47;;;1.33;;
44995;SDS011;30729;49.486;10.792;2023-08-07T03:25:33;3.33;;;1.33;;
44995;SDS011;30729;49.486;10.792;2023-08-07T03:27:58;5.63;;;1.70;;
44995;SDS011;30729;49.486;10.792;2023-08-07T03:30:23;2.83;;;0.90;;
44995;SDS011;30729;49.486;10.792;2023-08-07T03:32:49;4.30;;;1.50;;
44995;SDS011;30729;49.486;10.792;2023-08-07T03:35:15;5.40;;;1.45;;
44995;SDS011;30729;49.486;10.792;2023-08-07T03:37:40;2.22;;;1.30;;
44995;SDS011;30729;49.486;10.792;2023-08-07T03:40:05;4.45;;;1.45;;
44995;SDS011;30729;49.486;10.792;2023-08-07T03:42:30;4.40;;;1.40;;
44995;SDS011;30729;49.486;10.792;2023-08-07T03:44:55;6.80;;;1.80;;
44995;SDS011;30729;49.486;10.792;2023-08-07T03:47:21;4.07;;;2.10;;
44995;SDS011;30729;49.486;10.792;2023-08-07T03:49:46;4.53;;;1.98;;
44995;SDS011;30729;49.486;10.792;2023-08-07T03:52:11;5.43;;;1.48;;
44995;SDS011;30729;49.486;10.792;2023-08-07T03:54:36;3.50;;;1.40;;
44995;SDS011;30729;49.486;10.792;2023-08-07T03:57:01;4.07;;;1.65;;
44995;SDS011;30729;49.486;10.792;2023-08-07T03:59:27;6.20;;;1.80;;
44995;SDS011;30729;49.486;10.792;2023-08-07T04:01:52;3.03;;;1.30;;
44995;SDS011;30729;49.486;10.792;2023-08-07T04:04:17;3.25;;;1.42;;
44995;SDS011;30729;49.486;10.792;2023-08-07T04:06:42;4.10;;;2.33;;
44995;SDS011;30729;49.486;10.792;2023-08-07T04:09:09;5.22;;;1.65;;
44995;SDS011;30729;49.486;10.792;2023-08-07T04:11:35;3.10;;;1.50;;
44995;SDS011;30729;49.486;10.792;2023-08-07T04:14:00;3.00;;;1.50;;
44995;SDS011;30729;49.486;10.792;2023-08-07T04:16:25;2.40;;;1.53;;
44995;SDS011;30729;49.486;10.792;2023-08-07T04:18:51;3.10;;;1.53;;
44995;SDS011;30729;49.486;10.792;2023-08-07T04:21:16;3.97;;;1.55;;
44995;SDS011;30729;49.486;10.792;2023-08-07T04:23:41;4.70;;;1.88;;
44995;SDS011;30729;49.486;10.792;2023-08-07T04:26:06;4.90;;;1.77;;
44995;SDS011;30729;49.486;10.792;2023-08-07T04:28:31;4.75;;;1.77;;
44995;SDS011;30729;49.486;10.792;2023-08-07T04:30:56;5.60;;;1.92;;
44995;SDS011;30729;49.486;10.792;2023-08-07T04:33:22;5.37;;;1.60;;
44995;SDS011;30729;49.486;10.792;2023-08-07T04:35:47;5.10;;;2.30;;
44995;SDS011;30729;49.486;10.792;2023-08-07T04:38:13;6.00;;;2.42;;
44995;SDS011;30729;49.486;10.792;2023-08-07T04:40:42;5.78;;;2.08;;
44995;SDS011;30729;49.486;10.792;2023-08-07T04:43:08;7.78;;;2.20;;
44995;SDS011;30729;49.486;10.792;2023-08-07T04:45:33;4.78;;;1.70;;
44995;SDS011;30729;49.486;10.792;2023-08-07T04:47:58;4.28;;;2.05;;
44995;SDS011;30729;49.486;10.792;2023-08-07T04:50:23;4.18;;;1.75;;
44995;SDS011;30729;49.486;10.792;2023-08-07T04:52:48;4.67;;;1.90;;
44995;SDS011;30729;49.486;10.792;2023-08-07T04:55:14;6.50;;;2.25;;
44995;SDS011;30729;49.486;10.792;2023-08-07T04:57:39;6.28;;;2.22;;
44995;SDS011;30729;49.486;10.792;2023-08-07T05:00:04;8.52;;;2.42;;
44995;SDS011;30729;49.486;10.792;2023-08-07T05:02:30;4.82;;;2.13;;
44995;SDS011;30729;49.486;10.792;2023-08-07T05:04:55;6.05;;;2.15;;
44995;SDS011;30729;49.486;10.792;2023-08-07T05:07:20;4.38;;;1.80;;
44995;SDS011;30729;49.486;10.792;2023-08-07T05:09:45;7.13;;;2.43;;
44995;SDS011;30729;49.486;10.792;2023-08-07T05:12:10;5.38;;;2.20;;
44995;SDS011;30729;49.486;10.792;2023-08-07T05:14:36;5.13;;;1.80;;
44995;SDS011;30729;49.486;10.792;2023-08-07T05:17:01;4.80;;;1.63;;
44995;SDS011;30729;49.486;10.792;2023-08-07T05:19:26;5.80;;;1.98;;
44995;SDS011;30729;49.486;10.792;2023-08-07T05:21:52;8.65;;;1.88;;
44995;SDS011;30729;49.486;10.792;2023-08-07T05:24:17;7.18;;;2.05;;
44995;SDS011;30729;49.486;10.792;2023-08-07T05:26:42;5.68;;;2.60;;
44995;SDS011;30729;49.486;10.792;2023-08-07T05:29:07;3.55;;;1.92;;
44995;SDS011;30729;49.486;10.792;2023-08-07T05:31:33;7.32;;;1.83;;
44995;SDS011;30729;49.486;10.792;2023-08-07T05:33:58;5.60;;;1.77;;
44995;SDS011;30729;49.486;10.792;2023-08-07T05:36:23;4.35;;;1.58;;
44995;SDS011;30729;49.486;10.792;2023-08-07T05:38:48;5.50;;;1.70;;
44995;SDS011;30729;49.486;10.792;2023-08-07T05:41:13;4.68;;;1.80;;
44995;SDS011;30729;49.486;10.792;2023-08-07T05:43:38;5.68;;;2.08;;
44995;SDS011;30729;49.486;10.792;2023-08-07T05:46:03;6.60;;;2.15;;
44995;SDS011;30729;49.486;10.792;2023-08-07T05:48:29;5.60;;;2.17;;
44995;SDS011;30729;49.486;10.792;2023-08-07T05:50:54;4.97;;;1.95;;
44995;SDS011;30729;49.486;10.792;2023-08-07T05:53:19;6.60;;;1.93;;
44995;SDS011;30729;49.486;10.792;2023-08-07T05:55:44;5.72;;;1.65;;
44995;SDS011;30729;49.486;10.792;2023-08-07T05:58:10;8.30;;;2.13;;
44995;SDS011;30729;49.486;10.792;2023-08-07T06:00:35;3.70;;;1.45;;
44995;SDS011;30729;49.486;10.792;2023-08-07T06:03:00;5.30;;;2.00;;
44995;SDS011;30729;49.486;10.792;2023-08-07T06:05:25;3.37;;;1.60;;
44995;SDS011;30729;49.486;10.792;2023-08-07T06:07:50;5.53;;;2.20;;
44995;SDS011;30729;49.486;10.792;2023-08-07T06:10:15;5.97;;;1.70;;
44995;SDS011;30729;49.486;10.792;2023-08-07T06:12:41;5.85;;;1.98;;
44995;SDS011;30729;49.486;10.792;2023-08-07T06:15:06;3.70;;;1.88;;
44995;SDS011;30729;49.486;10.792;2023-08-07T06:17:31;4.85;;;1.73;;
44995;SDS011;30729;49.486;10.792;2023-08-07T06:19:56;4.50;;;1.80;;
44995;SDS011;30729;49.486;10.792;2023-08-07T06:22:21;3.00;;;1.65;;
44995;SDS011;30729;49.486;10.792;2023-08-07T06:24:47;10.27;;;1.92;;
44995;SDS011;30729;49.486;10.792;2023-08-07T06:27:12;5.78;;;2.10;;
44995;SDS011;30729;49.486;10.792;2023-08-07T06:29:37;6.25;;;2.42;;
44995;SDS011;30729;49.486;10.792;2023-08-07T06:32:02;7.10;;;2.15;;
44995;SDS011;30729;49.486;10.792;2023-08-07T06:34:27;2.95;;;1.67;;
44995;SDS011;30729;49.486;10.792;2023-08-07T06:36:53;7.13;;;2.58;;
44995;SDS011;30729;49.486;10.792;2023-08-07T06:39:18;2.60;;;1.33;;
44995;SDS011;30729;49.486;10.792;2023-08-07T06:41:44;9.53;;;2.30;;
44995;SDS011;30729;49.486;10.792;2023-08-07T06:44:09;5.82;;;1.83;;
44995;SDS011;30729;49.486;10.792;2023-08-07T06:46:34;5.00;;;2.33;;
44995;SDS011;30729;49.486;10.792;2023-08-07T06:48:59;6.63;;;2.05;;
44995;SDS011;30729;49.486;10.792;2023-08-07T06:51:24;5.40;;;2.47;;
44995;SDS011;30729;49.486;10.792;2023-08-07T06:53:49;4.65;;;1.77;;
44995;SDS011;30729;49.486;10.792;2023-08-07T06:56:14;4.43;;;2.10;;
44995;SDS011;30729;49.486;10.792;2023-08-07T06:58:40;8.57;;;2.22;;
44995;SDS011;30729;49.486;10.792;2023-08-07T07:01:05;7.13;;;2.58;;
44995;SDS011;30729;49.486;10.792;2023-08-07T07:03:31;7.93;;;2.53;;
44995;SDS011;30729;49.486;10.792;2023-08-07T07:05:56;7.85;;;2.35;;
44995;SDS011;30729;49.486;10.792;2023-08-07T07:08:21;4.80;;;2.03;;
44995;SDS011;30729;49.486;10.792;2023-08-07T07:10:48;5.25;;;1.80;;
44995;SDS011;30729;49.486;10.792;2023-08-07T07:13:13;6.93;;;2.15;;
44995;SDS011;30729;49.486;10.792;2023-08-07T07:15:38;4.07;;;1.73;;
44995;SDS011;30729;49.486;10.792;2023-08-07T07:18:03;4.85;;;2.08;;
44995;SDS011;30729;49.486;10.792;2023-08-07T07:20:29;5.53;;;1.80;;
44995;SDS011;30729;49.486;10.792;2023-08-07T07:22:54;8.65;;;1.85;;
44995;SDS011;30729;49.486;10.792;2023-08-07T07:25:19;9.10;;;2.70;;
44995;SDS011;30729;49.486;10.792;2023-08-07T07:27:44;4.70;;;1.90;;
44995;SDS011;30729;49.486;10.792;2023-08-07T07:30:09;7.97;;;3.08;;
44995;SDS011;30729;49.486;10.792;2023-08-07T07:32:35;7.60;;;2.05;;
44995;SDS011;30729;49.486;10.792;2023-08-07T07:35:00;8.35;;;2.08;;
44995;SDS011;30729;49.486;10.792;2023-08-07T07:37:25;6.38;;;2.20;;
44995;SDS011;30729;49.486;10.792;2023-08-07T07:39:50;5.45;;;2.17;;
44995;SDS011;30729;49.486;10.792;2023-08-07T07:42:15;4.88;;;2.00;;
44995;SDS011;30729;49.486;10.792;2023-08-07T07:44:40;4.90;;;1.83;;
44995;SDS011;30729;49.486;10.792;2023-08-07T07:47:06;5.93;;;2.28;;
44995;SDS011;30729;49.486;10.792;2023-08-07T07:49:32;7.53;;;1.80;;
44995;SDS011;30729;49.486;10.792;2023-08-07T07:51:57;6.10;;;1.65;;
44995;SDS011;30729;49.486;10.792;2023-08-07T07:54:22;6.57;;;2.10;;
44995;SDS011;30729;49.486;10.792;2023-08-07T07:56:48;8.85;;;2.63;;
44995;SDS011;30729;49.486;10.792;2023-08-07T07:59:13;5.07;;;2.05;;
44995;SDS011;30729;49.486;10.792;2023-08-07T08:01:38;5.50;;;2.10;;
44995;SDS011;30729;49.486;10.792;2023-08-07T08:04:04;7.03;;;1.80;;
44995;SDS011;30729;49.486;10.792;2023-08-07T08:06:29;5.90;;;2.17;;
44995;SDS011;30729;49.486;10.792;2023-08-07T08:08:55;5.97;;;2.03;;
44995;SDS011;30729;49.486;10.792;2023-08-07T08:11:21;6.75;;;2.50;;
44995;SDS011;30729;49.486;10.792;2023-08-07T08:13:46;6.57;;;2.40;;
44995;SDS011;30729;49.486;10.792;2023-08-07T08:16:11;6.55;;;1.98;;
44995;SDS011;30729;49.486;10.792;2023-08-07T08:18:36;5.85;;;2.05;;
44995;SDS011;30729;49.486;10.792;2023-08-07T08:21:01;5.82;;;2.00;;
44995;SDS011;30729;49.486;10.792;2023-08-07T08:23:26;8.52;;;2.42;;
44995;SDS011;30729;49.486;10.792;2023-08-07T08:25:51;5.13;;;2.28;;
44995;SDS011;30729;49.486;10.792;2023-08-07T08:28:17;8.13;;;2.00;;
44995;SDS011;30729;49.486;10.792;2023-08-07T08:30:42;5.10;;;2.43;;
44995;SDS011;30729;49.486;10.792;2023-08-07T08:33:07;5.00;;;1.93;;
44995;SDS011;30729;49.486;10.792;2023-08-07T08:35:34;5.47;;;2.10;;
44995;SDS011;30729;49.486;10.792;2023-08-07T08:37:59;5.93;;;2.23;;
44995;SDS011;30729;49.486;10.792;2023-08-07T08:40:24;7.93;;;2.38;;
44995;SDS011;30729;49.486;10.792;2023-08-07T08:42:50;7.10;;;2.08;;
44995;SDS011;30729;49.486;10.792;2023-08-07T08:45:16;4.78;;;2.38;;
44995;SDS011;30729;49.486;10.792;2023-08-07T08:47:42;5.25;;;2.05;;
44995;SDS011;30729;49.486;10.792;2023-08-07T08:50:09;3.35;;;1.70;;
44995;SDS011;30729;49.486;10.792;2023-08-07T08:52:40;3.85;;;1.83;;
44995;SDS011;30729;49.486;10.792;2023-08-07T08:55:05;5.07;;;1.85;;
44995;SDS011;30729;49.486;10.792;2023-08-07T08:57:31;6.60;;;2.10;;
44995;SDS011;30729;49.486;10.792;2023-08-07T08:59:57;3.78;;;1.75;;
44995;SDS011;30729;49.486;10.792;2023-08-07T09:02:23;4.93;;;1.70;;
44995;SDS011;30729;49.486;10.792;2023-08-07T09:04:49;7.57;;;1.70;;
44995;SDS011;30729;49.486;10.792;2023-08-07T09:07:14;3.60;;;1.63;;
44995;SDS011;30729;49.486;10.792;2023-08-07T09:09:40;4.72;;;1.67;;
44995;SDS011;30729;49.486;10.792;2023-08-07T09:12:08;5.75;;;1.77;;
44995;SDS011;30729;49.486;10.792;2023-08-07T09:14:35;4.85;;;1.73;;
44995;SDS011;30729;49.486;10.792;2023-08-07T09:17:02;7.07;;;2.10;;
44995;SDS011;30729;49.486;10.792;2023-08-07T09:19:27;5.38;;;1.60;;
44995;SDS011;30729;49.486;10.792;2023-08-07T09:21:52;4.97;;;1.83;;
44995;SDS011;30729;49.486;10.792;2023-08-07T09:24:18;4.10;;;1.67;;
44995;SDS011;30729;49.486;10.792;2023-08-07T09:26:44;2.55;;;1.50;;
44995;SDS011;30729;49.486;10.792;2023-08-07T09:29:10;3.85;;;1.50;;
44995;SDS011;30729;49.486;10.792;2023-08-07T09:31:36;7.60;;;1.65;;
44995;SDS011;30729;49.486;10.792;2023-08-07T09:34:02;3.33;;;1.50;;
44995;SDS011;30729;49.486;10.792;2023-08-07T09:36:31;4.28;;;1.60;;
44995;SDS011;30729;49.486;10.792;2023-08-07T09:38:58;3.70;;;1.67;;
44995;SDS011;30729;49.486;10.792;2023-08-07T09:41:25;3.25;;;1.63;;
44995;SDS011;30729;49.486;10.792;2023-08-07T09:43:50;5.07;;;1.85;;
44995;SDS011;30729;49.486;10.792;2023-08-07T09:46:15;3.30;;;1.57;;
44995;SDS011;30729;49.486;10.792;2023-08-07T09:48:43;4.55;;;1.48;;
44995;SDS011;30729;49.486;10.792;2023-08-07T09:51:08;4.50;;;1.63;;
44995;SDS011;30729;49.486;10.792;2023-08-07T09:53:34;3.83;;;1.50;;
44995;SDS011;30729;49.486;10.792;2023-08-07T09:55:59;3.72;;;1.70;;
44995;SDS011;30729;49.486;10.792;2023-08-07T09:58:24;5.43;;;1.77;;
44995;SDS011;30729;49.486;10.792;2023-08-07T10:00:50;4.82;;;1.50;;
44995;SDS011;30729;49.486;10.792;2023-08-07T10:03:18;3.90;;;1.60;;
44995;SDS011;30729;49.486;10.792;2023-08-07T10:05:44;3.40;;;1.45;;
44995;SDS011;30729;49.486;10.792;2023-08-07T10:08:10;4.65;;;1.50;;
44995;SDS011;30729;49.486;10.792;2023-08-07T10:10:35;3.35;;;1.55;;
44995;SDS011;30729;49.486;10.792;2023-08-07T10:13:01;2.47;;;1.35;;
44995;SDS011;30729;49.486;10.792;2023-08-07T10:15:27;5.45;;;1.83;;
44995;SDS011;30729;49.486;10.792;2023-08-07T10:17:53;2.88;;;1.23;;
44995;SDS011;30729;49.486;10.792;2023-08-07T10:20:18;4.40;;;1.40;;
44995;SDS011;30729;49.486;10.792;2023-08-07T10:22:45;4.13;;;2.00;;
44995;SDS011;30729;49.486;10.792;2023-08-07T10:25:10;5.90;;;1.90;;
44995;SDS011;30729;49.486;10.792;2023-08-07T10:27:37;6.55;;;1.77;;
44995;SDS011;30729;49.486;10.792;2023-08-07T10:30:03;5.45;;;1.77;;
44995;SDS011;30729;49.486;10.792;2023-08-07T10:32:29;4.65;;;1.75;;
44995;SDS011;30729;49.486;10.792;2023-08-07T10:34:55;3.05;;;1.45;;
44995;SDS011;30729;49.486;10.792;2023-08-07T10:40:02;4.82;;;1.60;;
44995;SDS011;30729;49.486;10.792;2023-08-07T10:42:28;4.85;;;1.88;;
44995;SDS011;30729;49.486;10.792;2023-08-07T10:44:54;4.07;;;1.70;;
44995;SDS011;30729;49.486;10.792;2023-08-07T10:47:32;4.30;;;1.70;;
44995;SDS011;30729;49.486;10.792;2023-08-07T10:49:57;3.75;;;2.40;;
44995;SDS011;30729;49.486;10.792;2023-08-07T10:52:24;5.07;;;1.80;;
44995;SDS011;30729;49.486;10.792;2023-08-07T10:54:49;5.43;;;1.80;;
44995;SDS011;30729;49.486;10.792;2023-08-07T10:57:15;5.70;;;2.00;;
44995;SDS011;30729;49.486;10.792;2023-08-07T11:00:23;4.60;;;2.08;;
44995;SDS011;30729;49.486;10.792;2023-08-07T11:02:30;4.47;;;1.52;;
44995;SDS011;30729;49.486;10.792;2023-08-07T11:04:56;7.20;;;2.15;;
44995;SDS011;30729;49.486;10.792;2023-08-07T11:07:25;6.43;;;1.67;;
44995;SDS011;30729;49.486;10.792;2023-08-07T11:09:51;5.60;;;1.73;;
44995;SDS011;30729;49.486;10.792;2023-08-07T11:12:16;4.47;;;1.92;;
44995;SDS011;30729;49.486;10.792;2023-08-07T11:14:41;5.70;;;1.90;;
44995;SDS011;30729;49.486;10.792;2023-08-07T11:17:06;5.53;;;2.30;;
44995;SDS011;30729;49.486;10.792;2023-08-07T11:19:31;7.30;;;2.03;;
44995;SDS011;30729;49.486;10.792;2023-08-07T11:21:57;4.03;;;1.83;;
44995;SDS011;30729;49.486;10.792;2023-08-07T11:24:22;4.78;;;1.80;;
44995;SDS011;30729;49.486;10.792;2023-08-07T11:26:47;7.50;;;1.70;;
44995;SDS011;30729;49.486;10.792;2023-08-07T11:29:16;9.50;;;2.08;;
44995;SDS011;30729;49.486;10.792;2023-08-07T11:31:41;8.05;;;1.80;;
44995;SDS011;30729;49.486;10.792;2023-08-07T11:34:06;3.57;;;1.83;;
44995;SDS011;30729;49.486;10.792;2023-08-07T11:36:31;7.22;;;1.90;;
44995;SDS011;30729;49.486;10.792;2023-08-07T11:38:58;4.13;;;1.30;;
44995;SDS011;30729;49.486;10.792;2023-08-07T11:41:23;3.17;;;1.67;;
44995;SDS011;30729;49.486;10.792;2023-08-07T11:43:48;2.70;;;1.30;;
44995;SDS011;30729;49.486;10.792;2023-08-07T11:46:14;2.57;;;1.30;;
44995;SDS011;30729;49.486;10.792;2023-08-07T11:48:40;5.20;;;1.85;;
44995;SDS011;30729;49.486;10.792;2023-08-07T11:51:06;9.18;;;1.70;;
44995;SDS011;30729;49.486;10.792;2023-08-07T11:53:32;4.60;;;1.85;;
44995;SDS011;30729;49.486;10.792;2023-08-07T11:55:58;4.68;;;1.50;;
44995;SDS011;30729;49.486;10.792;2023-08-07T11:58:24;5.53;;;1.50;;
44995;SDS011;30729;49.486;10.792;2023-08-07T12:00:50;5.10;;;1.70;;
44995;SDS011;30729;49.486;10.792;2023-08-07T12:03:25;3.55;;;1.50;;
44995;SDS011;30729;49.486;10.792;2023-08-07T12:05:51;3.53;;;1.50;;
44995;SDS011;30729;49.486;10.792;2023-08-07T12:08:16;3.25;;;1.50;;
44995;SDS011;30729;49.486;10.792;2023-08-07T12:10:42;5.07;;;1.80;;
44995;SDS011;30729;49.486;10.792;2023-08-07T12:13:08;2.55;;;1.30;;
44995;SDS011;30729;49.486;10.792;2023-08-07T12:15:33;2.63;;;1.20;;
44995;SDS011;30729;49.486;10.792;2023-08-07T12:18:01;3.80;;;1.25;;
44995;SDS011;30729;49.486;10.792;2023-08-07T12:20:27;5.22;;;1.40;;
44995;SDS011;30729;49.486;10.792;2023-08-07T12:22:52;1.60;;;1.08;;
44995;SDS011;30729;49.486;10.792;2023-08-07T12:25:17;3.13;;;1.60;;
44995;SDS011;30729;49.486;10.792;2023-08-07T12:27:42;2.60;;;1.40;;
44995;SDS011;30729;49.486;10.792;2023-08-07T12:30:08;6.47;;;1.75;;
44995;SDS011;30729;49.486;10.792;2023-08-07T12:32:33;5.60;;;1.83;;
44995;SDS011;30729;49.486;10.792;2023-08-07T12:34:58;4.25;;;1.63;;
44995;SDS011;30729;49.486;10.792;2023-08-07T12:37:23;4.30;;;1.80;;
44995;SDS011;30729;49.486;10.792;2023-08-07T12:39:48;4.53;;;1.52;;
44995;SDS011;30729;49.486;10.792;2023-08-07T12:42:14;3.53;;;1.60;;
44995;SDS011;30729;49.486;10.792;2023-08-07T12:44:39;4.75;;;1.50;;
44995;SDS011;30729;49.486;10.792;2023-08-07T12:47:04;5.13;;;1.48;;
44995;SDS011;30729;49.486;10.792;2023-08-07T12:49:29;4.78;;;1.58;;
44995;SDS011;30729;49.486;10.792;2023-08-07T12:51:55;3.03;;;1.30;;
44995;SDS011;30729;49.486;10.792;2023-08-07T12:54:22;4.72;;;1.48;;
44995;SDS011;30729;49.486;10.792;2023-08-07T12:56:48;4.13;;;1.27;;
44995;SDS011;30729;49.486;10.792;2023-08-07T12:59:13;4.18;;;1.27;;
44995;SDS011;30729;49.486;10.792;2023-08-07T13:01:38;2.55;;;1.33;;
44995;SDS011;30729;49.486;10.792;2023-08-07T13:04:03;2.97;;;1.50;;
44995;SDS011;30729;49.486;10.792;2023-08-07T13:06:30;4.30;;;1.98;;
44995;SDS011;30729;49.486;10.792;2023-08-07T13:08:55;4.38;;;1.50;;
44995;SDS011;30729;49.486;10.792;2023-08-07T13:11:21;3.67;;;1.50;;
44995;SDS011;30729;49.486;10.792;2023-08-07T13:13:46;4.28;;;1.65;;
44995;SDS011;30729;49.486;10.792;2023-08-07T13:16:11;7.35;;;1.95;;
44995;SDS011;30729;49.486;10.792;2023-08-07T13:18:36;4.05;;;1.40;;
44995;SDS011;30729;49.486;10.792;2023-08-07T13:21:02;5.03;;;1.67;;
44995;SDS011;30729;49.486;10.792;2023-08-07T13:23:27;4.43;;;1.65;;
44995;SDS011;30729;49.486;10.792;2023-08-07T13:25:52;4.72;;;1.80;;
44995;SDS011;30729;49.486;10.792;2023-08-07T13:28:17;4.95;;;1.63;;
44995;SDS011;30729;49.486;10.792;2023-08-07T13:30:43;4.53;;;1.70;;
44995;SDS011;30729;49.486;10.792;2023-08-07T13:33:08;4.55;;;1.80;;
44995;SDS011;30729;49.486;10.792;2023-08-07T13:35:33;2.78;;;1.33;;
44995;SDS011;30729;49.486;10.792;2023-08-07T13:37:58;4.78;;;1.85;;
44995;SDS011;30729;49.486;10.792;2023-08-07T13:40:24;5.57;;;1.63;;
44995;SDS011;30729;49.486;10.792;2023-08-07T13:42:49;3.47;;;1.50;;
44995;SDS011;30729;49.486;10.792;2023-08-07T13:45:14;3.15;;;1.33;;
44995;SDS011;30729;49.486;10.792;2023-08-07T13:47:39;4.27;;;1.80;;
44995;SDS011;30729;49.486;10.792;2023-08-07T13:50:05;5.03;;;1.40;;
44995;SDS011;30729;49.486;10.792;2023-08-07T13:52:32;4.68;;;1.65;;
44995;SDS011;30729;49.486;10.792;2023-08-07T13:54:57;3.72;;;1.63;;
44995;SDS011;30729;49.486;10.792;2023-08-07T13:57:22;4.20;;;1.77;;
44995;SDS011;30729;49.486;10.792;2023-08-07T13:59:47;2.78;;;1.60;;
44995;SDS011;30729;49.486;10.792;2023-08-07T14:02:12;4.72;;;1.67;;
44995;SDS011;30729;49.486;10.792;2023-08-07T14:04:38;4.43;;;1.77;;
44995;SDS011;30729;49.486;10.792;2023-08-07T14:07:03;5.18;;;1.67;;
44995;SDS011;30729;49.486;10.792;2023-08-07T14:09:29;3.17;;;1.88;;
44995;SDS011;30729;49.486;10.792;2023-08-07T14:11:54;4.28;;;1.70;;
44995;SDS011;30729;49.486;10.792;2023-08-07T14:14:20;3.95;;;1.77;;
44995;SDS011;30729;49.486;10.792;2023-08-07T14:16:46;3.35;;;1.75;;
44995;SDS011;30729;49.486;10.792;2023-08-07T14:19:11;5.03;;;1.80;;
44995;SDS011;30729;49.486;10.792;2023-08-07T14:21:36;4.45;;;1.60;;
44995;SDS011;30729;49.486;10.792;2023-08-07T14:24:01;4.22;;;1.90;;
44995;SDS011;30729;49.486;10.792;2023-08-07T14:26:26;5.35;;;1.63;;
44995;SDS011;30729;49.486;10.792;2023-08-07T14:28:51;5.80;;;1.80;;